CXI weather

Cassidy International Airport
Banana, Line Islands, Kiribati

Public forecast

Using degrees Celsius for public forecast. Weather courtesy of forecast.io.

METAR (pilot weather report)

Retrieved 2019/05/23 03:00 UTC (18 minutes ago):

PLCH 230300Z 11010KT 9999 SCT019 BKN100 29/25 Q1007

TAF (pilot weather forecast)

Forecast is more than 12 hours old.

Retrieved 2019/05/22 00:00 UTC (1 day ago):

TAF PLCH 222323Z 2300/2324 11007KT 9999 -SHRA SCT018 BKN100 PROB40 TEMPO 2300/2306 5000 TSRA FEW018CB PROB40 TEMPO 2312/2324 3000 TSRA BKN015 FEW018CB